createdAt,value
2017-08-22T14:30:02.985Z,61.08
2017-08-22T14:35:02.218Z,61.84
2017-08-22T14:40:02.409Z,63.39
2017-08-22T14:45:02.605Z,64.15
2017-08-22T14:50:02.681Z,62.03
2017-08-22T14:55:02.872Z,61.1
2017-08-22T15:00:02.068Z,59.4
2017-08-22T15:05:02.310Z,61.43
2017-08-22T15:10:02.556Z,60.87
2017-08-22T15:15:02.777Z,60.44
2017-08-22T15:20:02.646Z,59.94
2017-08-22T15:25:02.843Z,60.38
2017-08-22T15:30:02.031Z,61.55
2017-08-22T15:35:02.283Z,60.01
2017-08-22T15:40:02.516Z,60.95
2017-08-22T15:45:02.710Z,60.83
2017-08-22T15:50:02.039Z,61.39
2017-08-22T15:55:02.313Z,63.61
2017-08-22T16:00:02.518Z,61.85
2017-08-22T16:05:02.870Z,60.21
2017-08-22T16:10:02.050Z,61.4
2017-08-22T16:15:02.324Z,62.18
2017-08-22T16:20:02.259Z,65.04
2017-08-22T16:25:02.441Z,62.16
2017-08-22T16:30:02.667Z,62.65
2017-08-22T16:35:02.225Z,62.73
2017-08-22T16:40:02.422Z,62.97
2017-08-22T16:45:02.625Z,63.71
2017-08-22T16:50:02.761Z,64.61
2017-08-22T16:55:02.947Z,63.58
2017-08-22T17:00:02.134Z,63.46
2017-08-22T17:05:02.683Z,65.19
2017-08-22T17:10:02.869Z,63.09
2017-08-22T17:15:02.076Z,61.18
2017-08-22T17:20:02.679Z,63.27
2017-08-22T17:25:02.889Z,64.45
2017-08-22T17:30:02.097Z,64.21
2017-08-22T17:35:02.690Z,65.4
2017-08-22T17:40:02.916Z,64.56
2017-08-22T17:45:02.086Z,65.54
2017-08-22T17:50:02.326Z,67.6
2017-08-22T17:55:02.625Z,68.68
2017-08-22T18:00:02.827Z,68.87
2017-08-22T18:05:02.138Z,72.15
2017-08-22T18:10:02.587Z,72.73
2017-08-22T18:15:02.793Z,74.01
2017-08-22T18:20:02.350Z,74.72
2017-08-22T18:25:02.539Z,75.97
2017-08-22T18:30:02.774Z,77.41
2017-08-22T18:35:02.564Z,77.67
2017-08-22T18:40:02.833Z,79.02
2017-08-22T18:45:02.993Z,79.25
2017-08-22T18:50:02.882Z,80.34
2017-08-22T18:55:02.105Z,79.79
2017-08-22T19:00:02.393Z,81.09
2017-08-22T19:05:02.426Z,81.18
2017-08-22T19:10:02.668Z,81.64
2017-08-22T19:15:02.852Z,82.74
2017-08-22T19:20:03.001Z,83.64
2017-08-22T19:25:02.254Z,84.42
2017-08-22T19:30:02.493Z,84.16
2017-08-22T19:35:02.665Z,84.33
2017-08-22T19:40:02.871Z,84.53
2017-08-22T19:45:02.052Z,85.04
2017-08-22T19:50:02.434Z,84.54
2017-08-22T19:55:02.655Z,84.53
2017-08-22T20:00:02.862Z,86.12
2017-08-22T20:05:02.831Z,86.16
2017-08-22T20:10:02.072Z,86.56
2017-08-22T20:15:02.308Z,87.46
2017-08-22T20:20:02.872Z,87.22
2017-08-22T20:25:02.084Z,87.67
2017-08-22T20:30:02.469Z,87.86
2017-08-22T20:35:02.841Z,87.8
2017-08-22T20:40:02.040Z,88.72
2017-08-22T20:45:02.278Z,89.04
2017-08-22T20:50:02.113Z,89.36
2017-08-22T20:55:02.348Z,89.73
2017-08-22T21:00:02.544Z,89.71
2017-08-22T21:05:02.331Z,89.62
2017-08-22T21:10:02.570Z,89.93
2017-08-22T21:15:02.738Z,89.46
2017-08-22T21:20:02.303Z,90.51
2017-08-22T21:25:02.506Z,90.21
2017-08-22T21:30:02.714Z,90.29
2017-08-22T21:35:02.309Z,90.36
2017-08-22T21:40:02.546Z,90.58
2017-08-22T21:45:02.730Z,90.81
2017-08-22T21:50:02.470Z,91
2017-08-22T21:55:02.654Z,91.18
2017-08-22T22:00:03.011Z,91.57
2017-08-22T22:05:02.653Z,91.55
2017-08-22T22:10:02.852Z,91.49
2017-08-22T22:15:02.038Z,91.48
2017-08-22T22:20:02.722Z,91.34
2017-08-22T22:25:02.924Z,91.9
2017-08-22T22:30:02.106Z,92.12
2017-08-22T22:35:02.619Z,92.17
2017-08-22T22:40:02.830Z,92.3
2017-08-22T22:45:02.030Z,92.34
2017-08-22T22:50:02.330Z,92.15
2017-08-22T22:55:02.545Z,92.55
2017-08-22T23:00:02.705Z,93.1
2017-08-22T23:05:02.309Z,92.95
2017-08-22T23:10:02.505Z,93.36
2017-08-22T23:15:02.760Z,93.34
2017-08-22T23:20:02.383Z,93.58
2017-08-22T23:25:02.609Z,93.46
2017-08-22T23:30:02.808Z,93.9
2017-08-22T23:35:02.867Z,94.27
2017-08-22T23:40:02.198Z,94
2017-08-22T23:45:02.437Z,94.03
2017-08-22T23:50:02.136Z,93.8
2017-08-22T23:55:02.364Z,93.87
